sensor_id;sensor_type;location;lat;lon;timestamp;pressure;altitude;pressure_sealevel;temperature;humidity
49627;BME280;35527;54.616;39.786;2024-03-23T00:54:32;99282.81;;;2.82;80.68
49627;BME280;35527;54.616;39.786;2024-03-23T00:57:33;99313.47;;;2.84;80.86
49627;BME280;35527;54.616;39.786;2024-03-23T01:00:37;99314.72;;;3.11;80.87
49627;BME280;35527;54.616;39.786;2024-03-23T01:03:41;99303.06;;;2.94;80.64
49627;BME280;35527;54.616;39.786;2024-03-23T01:06:44;99270.22;;;2.71;81.06
49627;BME280;35527;54.616;39.786;2024-03-23T01:09:45;99295.53;;;2.87;81.86
49627;BME280;35527;54.616;39.786;2024-03-23T01:12:50;99295.38;;;2.94;82.01
49627;BME280;35527;54.616;39.786;2024-03-23T01:15:54;99294.88;;;2.76;82.01
49627;BME280;35527;54.616;39.786;2024-03-23T01:18:56;99273.22;;;2.97;81.74
49627;BME280;35527;54.616;39.786;2024-03-23T01:21:58;99283.38;;;3.00;81.37
49627;BME280;35527;54.616;39.786;2024-03-23T01:25:02;99282.38;;;3.08;81.60
49627;BME280;35527;54.616;39.786;2024-03-23T01:28:05;99281.44;;;3.14;81.62
49627;BME280;35527;54.616;39.786;2024-03-23T01:31:07;99262.03;;;3.02;81.53
49627;BME280;35527;54.616;39.786;2024-03-23T01:34:09;99261.25;;;2.99;81.80
49627;BME280;35527;54.616;39.786;2024-03-23T01:37:13;99264.19;;;3.27;82.16
49627;BME280;35527;54.616;39.786;2024-03-23T01:40:17;99269.41;;;3.21;81.73
49627;BME280;35527;54.616;39.786;2024-03-23T01:43:19;99244.72;;;3.18;81.67
49627;BME280;35527;54.616;39.786;2024-03-23T01:46:22;99214.25;;;3.06;81.75
49627;BME280;35527;54.616;39.786;2024-03-23T01:49:26;99226.78;;;3.21;82.35
49627;BME280;35527;54.616;39.786;2024-03-23T01:52:28;99210.63;;;3.17;81.62
49627;BME280;35527;54.616;39.786;2024-03-23T01:55:34;99229.69;;;3.46;81.87
49627;BME280;35527;54.616;39.786;2024-03-23T01:58:40;99180.97;;;3.09;81.69
49627;BME280;35527;54.616;39.786;2024-03-23T02:01:42;99229.03;;;3.36;81.73
49627;BME280;35527;54.616;39.786;2024-03-23T02:04:44;99224.84;;;3.32;81.64
49627;BME280;35527;54.616;39.786;2024-03-23T02:07:47;99207.16;;;3.22;81.90
49627;BME280;35527;54.616;39.786;2024-03-23T02:10:50;99218.78;;;2.91;82.47
49627;BME280;35527;54.616;39.786;2024-03-23T02:13:56;99212.00;;;2.89;84.16
49627;BME280;35527;54.616;39.786;2024-03-23T02:16:58;99209.06;;;3.10;83.62
49627;BME280;35527;54.616;39.786;2024-03-23T02:20:04;99220.84;;;3.19;83.25
49627;BME280;35527;54.616;39.786;2024-03-23T02:23:16;99217.47;;;3.17;84.86
49627;BME280;35527;54.616;39.786;2024-03-23T02:26:19;99191.75;;;3.25;83.52
49627;BME280;35527;54.616;39.786;2024-03-23T02:29:22;99193.56;;;3.20;82.62
49627;BME280;35527;54.616;39.786;2024-03-23T02:32:24;99200.75;;;3.01;84.05
49627;BME280;35527;54.616;39.786;2024-03-23T02:35:27;99190.00;;;2.82;84.26
49627;BME280;35527;54.616;39.786;2024-03-23T02:38:29;99208.72;;;3.29;83.83
49627;BME280;35527;54.616;39.786;2024-03-23T02:41:31;99196.72;;;3.32;82.98
49627;BME280;35527;54.616;39.786;2024-03-23T02:44:33;99192.44;;;3.33;82.48
49627;BME280;35527;54.616;39.786;2024-03-23T02:47:35;99195.47;;;3.52;82.43
49627;BME280;35527;54.616;39.786;2024-03-23T02:50:38;99179.25;;;3.53;81.69
49627;BME280;35527;54.616;39.786;2024-03-23T02:53:45;99181.03;;;3.06;83.63
49627;BME280;35527;54.616;39.786;2024-03-23T02:56:47;99178.34;;;3.13;83.29
49627;BME280;35527;54.616;39.786;2024-03-23T02:59:49;99161.81;;;3.30;83.08
49627;BME280;35527;54.616;39.786;2024-03-23T03:02:52;99178.72;;;3.37;83.10
49627;BME280;35527;54.616;39.786;2024-03-23T03:05:56;99174.75;;;3.24;84.97
49627;BME280;35527;54.616;39.786;2024-03-23T03:08:58;99164.91;;;3.02;85.15
49627;BME280;35527;54.616;39.786;2024-03-23T03:12:04;99166.69;;;3.42;84.30
49627;BME280;35527;54.616;39.786;2024-03-23T03:15:08;99145.13;;;3.54;82.68
49627;BME280;35527;54.616;39.786;2024-03-23T03:18:10;99151.25;;;3.47;82.75
49627;BME280;35527;54.616;39.786;2024-03-23T03:21:13;99158.81;;;3.51;82.42
49627;BME280;35527;54.616;39.786;2024-03-23T03:24:14;99149.41;;;3.52;82.43
49627;BME280;35527;54.616;39.786;2024-03-23T03:27:17;99150.72;;;3.71;82.24
49627;BME280;35527;54.616;39.786;2024-03-23T03:30:20;99147.06;;;3.01;83.80
49627;BME280;35527;54.616;39.786;2024-03-23T03:33:22;99129.88;;;3.49;82.67
49627;BME280;35527;54.616;39.786;2024-03-23T03:36:24;99137.91;;;3.32;84.57
49627;BME280;35527;54.616;39.786;2024-03-23T03:39:26;99130.38;;;3.65;82.92
49627;BME280;35527;54.616;39.786;2024-03-23T03:42:30;99127.97;;;3.19;83.10
49627;BME280;35527;54.616;39.786;2024-03-23T03:45:32;99116.69;;;3.27;84.46
49627;BME280;35527;54.616;39.786;2024-03-23T03:48:35;99118.50;;;3.63;83.60
49627;BME280;35527;54.616;39.786;2024-03-23T03:51:40;99092.53;;;3.79;81.79
49627;BME280;35527;54.616;39.786;2024-03-23T03:54:45;99127.53;;;3.79;81.17
49627;BME280;35527;54.616;39.786;2024-03-23T03:57:46;99088.16;;;3.83;80.41
49627;BME280;35527;54.616;39.786;2024-03-23T04:00:49;99097.56;;;3.82;80.53
49627;BME280;35527;54.616;39.786;2024-03-23T04:03:52;99103.91;;;4.03;80.47
49627;BME280;35527;54.616;39.786;2024-03-23T04:07:01;99111.88;;;4.27;80.25
49627;BME280;35527;54.616;39.786;2024-03-23T04:10:04;99075.59;;;4.10;79.19
49627;BME280;35527;54.616;39.786;2024-03-23T04:13:12;99088.03;;;4.23;78.28
49627;BME280;35527;54.616;39.786;2024-03-23T04:16:26;99109.16;;;4.33;78.60
49627;BME280;35527;54.616;39.786;2024-03-23T04:19:28;99072.41;;;4.34;78.85
49627;BME280;35527;54.616;39.786;2024-03-23T04:22:31;99069.41;;;4.51;78.49
49627;BME280;35527;54.616;39.786;2024-03-23T04:25:33;99080.34;;;4.89;76.49
49627;BME280;35527;54.616;39.786;2024-03-23T04:28:35;99082.66;;;4.98;74.16
49627;BME280;35527;54.616;39.786;2024-03-23T04:31:36;99061.53;;;5.19;73.13
49627;BME280;35527;54.616;39.786;2024-03-23T04:34:38;99061.44;;;5.51;71.52
49627;BME280;35527;54.616;39.786;2024-03-23T04:37:39;99056.00;;;5.33;70.24
49627;BME280;35527;54.616;39.786;2024-03-23T04:40:44;99050.53;;;5.16;71.21
49627;BME280;35527;54.616;39.786;2024-03-23T04:43:46;99041.09;;;5.16;71.64
49627;BME280;35527;54.616;39.786;2024-03-23T04:46:48;99063.53;;;5.66;70.51
49627;BME280;35527;54.616;39.786;2024-03-23T04:49:51;99060.75;;;6.00;69.05
49627;BME280;35527;54.616;39.786;2024-03-23T04:52:54;99040.22;;;6.99;66.92
49627;BME280;35527;54.616;39.786;2024-03-23T04:55:56;99041.34;;;7.37;61.94
49627;BME280;35527;54.616;39.786;2024-03-23T04:59:05;99017.16;;;6.49;62.34
49627;BME280;35527;54.616;39.786;2024-03-23T05:02:07;99039.75;;;5.87;64.11
49627;BME280;35527;54.616;39.786;2024-03-23T05:05:12;99027.59;;;5.94;65.42
49627;BME280;35527;54.616;39.786;2024-03-23T05:08:16;99038.38;;;6.30;65.50
49627;BME280;35527;54.616;39.786;2024-03-23T05:11:21;99029.03;;;7.00;63.73
49627;BME280;35527;54.616;39.786;2024-03-23T05:14:26;99020.16;;;7.53;60.42
49627;BME280;35527;54.616;39.786;2024-03-23T05:17:32;99024.28;;;7.57;60.47
49627;BME280;35527;54.616;39.786;2024-03-23T05:20:35;99022.44;;;7.38;59.61
49627;BME280;35527;54.616;39.786;2024-03-23T05:23:39;99013.97;;;7.13;60.20
49627;BME280;35527;54.616;39.786;2024-03-23T05:26:41;99010.34;;;6.95;60.86
49627;BME280;35527;54.616;39.786;2024-03-23T05:29:43;99016.53;;;7.35;60.58
49627;BME280;35527;54.616;39.786;2024-03-23T05:32:46;98998.34;;;7.17;59.55
49627;BME280;35527;54.616;39.786;2024-03-23T05:35:56;98979.88;;;7.30;59.99
49627;BME280;35527;54.616;39.786;2024-03-23T05:38:58;98999.31;;;7.15;60.05
49627;BME280;35527;54.616;39.786;2024-03-23T05:42:02;99002.88;;;7.77;59.66
49627;BME280;35527;54.616;39.786;2024-03-23T05:45:05;98982.34;;;8.16;58.90
49627;BME280;35527;54.616;39.786;2024-03-23T05:48:10;98991.41;;;8.66;56.46
49627;BME280;35527;54.616;39.786;2024-03-23T05:51:11;98987.66;;;8.73;55.24
49627;BME280;35527;54.616;39.786;2024-03-23T05:54:19;98976.59;;;8.50;55.02
49627;BME280;35527;54.616;39.786;2024-03-23T05:57:22;98975.63;;;7.71;56.42
49627;BME280;35527;54.616;39.786;2024-03-23T06:00:25;98961.38;;;7.20;57.92
49627;BME280;35527;54.616;39.786;2024-03-23T06:03:28;98960.72;;;7.37;58.09
49627;BME280;35527;54.616;39.786;2024-03-23T06:06:33;98961.81;;;7.52;58.32
49627;BME280;35527;54.616;39.786;2024-03-23T06:09:35;98941.91;;;7.77;58.51
49627;BME280;35527;54.616;39.786;2024-03-23T06:12:37;98946.78;;;7.83;57.86
49627;BME280;35527;54.616;39.786;2024-03-23T06:15:39;98939.66;;;7.90;56.92
49627;BME280;35527;54.616;39.786;2024-03-23T06:18:42;98938.09;;;7.86;57.11
49627;BME280;35527;54.616;39.786;2024-03-23T06:21:45;98931.16;;;7.67;57.00
49627;BME280;35527;54.616;39.786;2024-03-23T06:24:47;98958.19;;;7.78;57.40
49627;BME280;35527;54.616;39.786;2024-03-23T06:27:49;98948.13;;;7.72;57.61
49627;BME280;35527;54.616;39.786;2024-03-23T06:30:59;98935.59;;;8.24;56.67
49627;BME280;35527;54.616;39.786;2024-03-23T06:34:02;98940.34;;;8.72;55.57
49627;BME280;35527;54.616;39.786;2024-03-23T06:37:05;98933.59;;;8.89;54.24
49627;BME280;35527;54.616;39.786;2024-03-23T06:40:08;98924.34;;;8.66;54.33
49627;BME280;35527;54.616;39.786;2024-03-23T06:43:12;98934.16;;;8.39;55.00
49627;BME280;35527;54.616;39.786;2024-03-23T06:46:16;98916.88;;;8.20;54.83
49627;BME280;35527;54.616;39.786;2024-03-23T06:49:20;98925.81;;;7.93;55.98
49627;BME280;35527;54.616;39.786;2024-03-23T06:52:22;98934.94;;;7.79;57.14
49627;BME280;35527;54.616;39.786;2024-03-23T06:55:28;98927.94;;;7.83;57.25
49627;BME280;35527;54.616;39.786;2024-03-23T06:59:03;98922.09;;;8.19;57.45
49627;BME280;35527;54.616;39.786;2024-03-23T07:02:05;98903.63;;;8.48;55.86
49627;BME280;35527;54.616;39.786;2024-03-23T07:05:10;98907.75;;;8.71;54.73
49627;BME280;35527;54.616;39.786;2024-03-23T07:08:14;98899.94;;;8.54;55.29
49627;BME280;35527;54.616;39.786;2024-03-23T07:11:23;98899.94;;;8.15;55.97
49627;BME280;35527;54.616;39.786;2024-03-23T07:14:35;98906.91;;;7.92;57.49
49627;BME280;35527;54.616;39.786;2024-03-23T07:17:36;98889.63;;;7.96;58.15
49627;BME280;35527;54.616;39.786;2024-03-23T07:20:41;98889.78;;;7.91;58.40
49627;BME280;35527;54.616;39.786;2024-03-23T07:23:43;98903.91;;;7.82;58.64
49627;BME280;35527;54.616;39.786;2024-03-23T07:26:49;98899.13;;;7.94;58.75
49627;BME280;35527;54.616;39.786;2024-03-23T07:29:53;98906.66;;;7.98;59.58
49627;BME280;35527;54.616;39.786;2024-03-23T07:32:57;98888.38;;;8.23;59.31
49627;BME280;35527;54.616;39.786;2024-03-23T07:36:00;98864.75;;;8.32;58.86
49627;BME280;35527;54.616;39.786;2024-03-23T07:39:02;98899.50;;;8.63;58.64
49627;BME280;35527;54.616;39.786;2024-03-23T07:42:05;98898.59;;;9.19;57.77
49627;BME280;35527;54.616;39.786;2024-03-23T07:45:08;98891.63;;;9.21;56.22
49627;BME280;35527;54.616;39.786;2024-03-23T07:48:11;98891.66;;;9.02;56.96
49627;BME280;35527;54.616;39.786;2024-03-23T07:51:21;98876.63;;;8.93;57.69
49627;BME280;35527;54.616;39.786;2024-03-23T07:54:24;98867.28;;;8.72;58.89
49627;BME280;35527;54.616;39.786;2024-03-23T07:57:27;98862.22;;;8.51;58.54
49627;BME280;35527;54.616;39.786;2024-03-23T08:00:30;98853.34;;;8.19;59.87
49627;BME280;35527;54.616;39.786;2024-03-23T08:03:32;98852.72;;;8.14;60.46
49627;BME280;35527;54.616;39.786;2024-03-23T08:06:33;98857.44;;;8.04;60.88
49627;BME280;35527;54.616;39.786;2024-03-23T08:09:36;98848.81;;;8.05;61.14
49627;BME280;35527;54.616;39.786;2024-03-23T08:12:38;98842.28;;;7.78;61.95
49627;BME280;35527;54.616;39.786;2024-03-23T08:15:41;98865.28;;;7.62;62.91
49627;BME280;35527;54.616;39.786;2024-03-23T08:18:43;98817.00;;;7.67;63.96
49627;BME280;35527;54.616;39.786;2024-03-23T08:21:47;98838.16;;;7.74;63.63
49627;BME280;35527;54.616;39.786;2024-03-23T08:24:52;98823.72;;;7.90;63.79
49627;BME280;35527;54.616;39.786;2024-03-23T08:27:54;98840.19;;;7.67;64.90
49627;BME280;35527;54.616;39.786;2024-03-23T08:30:56;98819.00;;;7.60;65.44
49627;BME280;35527;54.616;39.786;2024-03-23T08:33:59;98809.16;;;7.50;66.59
49627;BME280;35527;54.616;39.786;2024-03-23T08:37:02;98825.19;;;7.36;66.98
49627;BME280;35527;54.616;39.786;2024-03-23T08:40:06;98787.47;;;7.35;67.38
49627;BME280;35527;54.616;39.786;2024-03-23T08:43:07;98801.22;;;7.54;68.60
49627;BME280;35527;54.616;39.786;2024-03-23T08:46:13;98791.13;;;7.89;68.04
49627;BME280;35527;54.616;39.786;2024-03-23T08:49:15;98791.25;;;7.86;68.15
49627;BME280;35527;54.616;39.786;2024-03-23T08:52:18;98787.09;;;7.83;67.72
49627;BME280;35527;54.616;39.786;2024-03-23T08:55:20;98777.75;;;7.81;67.96
49627;BME280;35527;54.616;39.786;2024-03-23T08:58:25;98791.00;;;8.11;68.37
49627;BME280;35527;54.616;39.786;2024-03-23T09:01:27;98801.16;;;7.76;68.19
49627;BME280;35527;54.616;39.786;2024-03-23T09:04:30;98794.22;;;7.58;70.32
49627;BME280;35527;54.616;39.786;2024-03-23T09:07:33;98782.19;;;7.38;71.22
49627;BME280;35527;54.616;39.786;2024-03-23T09:10:41;98772.00;;;7.55;71.80
49627;BME280;35527;54.616;39.786;2024-03-23T09:13:44;98752.94;;;7.20;72.96
49627;BME280;35527;54.616;39.786;2024-03-23T09:16:45;98764.72;;;7.05;74.41
49627;BME280;35527;54.616;39.786;2024-03-23T09:19:48;98756.16;;;6.84;76.15
49627;BME280;35527;54.616;39.786;2024-03-23T09:22:50;98764.63;;;6.86;78.02
49627;BME280;35527;54.616;39.786;2024-03-23T09:25:54;98752.38;;;6.93;77.44
49627;BME280;35527;54.616;39.786;2024-03-23T09:28:56;98767.41;;;7.02;78.49
49627;BME280;35527;54.616;39.786;2024-03-23T09:31:57;98752.91;;;7.01;78.71
49627;BME280;35527;54.616;39.786;2024-03-23T09:35:00;98715.41;;;7.35;78.56
49627;BME280;35527;54.616;39.786;2024-03-23T09:38:03;98715.41;;;7.35;78.56
49627;BME280;35527;54.616;39.786;2024-03-23T09:41:09;98715.41;;;7.35;78.56
49627;BME280;35527;54.616;39.786;2024-03-23T09:44:14;98687.44;;;7.07;78.63
49627;BME280;35527;54.616;39.786;2024-03-23T09:47:18;98687.44;;;7.07;78.63
49627;BME280;35527;54.616;39.786;2024-03-23T09:50:20;98687.44;;;7.07;78.63
49627;BME280;35527;54.616;39.786;2024-03-23T09:53:23;98687.44;;;7.07;78.63
49627;BME280;35527;54.616;39.786;2024-03-23T09:56:24;98687.44;;;7.07;78.63
49627;BME280;35527;54.616;39.786;2024-03-23T09:59:29;98687.44;;;7.07;78.63
49627;BME280;35527;54.616;39.786;2024-03-23T10:02:36;98687.44;;;7.07;78.63
49627;BME280;35527;54.616;39.786;2024-03-23T10:05:38;98687.44;;;7.07;78.63
49627;BME280;35527;54.616;39.786;2024-03-23T10:08:40;98687.44;;;7.07;78.63
49627;BME280;35527;54.616;39.786;2024-03-23T10:11:46;98687.44;;;7.07;78.63
49627;BME280;35527;54.616;39.786;2024-03-23T10:14:52;98687.44;;;7.07;78.63
49627;BME280;35527;54.616;39.786;2024-03-23T10:17:54;98687.44;;;7.07;78.63
49627;BME280;35527;54.616;39.786;2024-03-23T10:21:07;98687.44;;;7.07;78.63
49627;BME280;35527;54.616;39.786;2024-03-23T10:24:10;98687.44;;;7.07;100.00
49627;BME280;35527;54.616;39.786;2024-03-23T10:27:20;60318.31;;;-145.73;100.00
49627;BME280;35527;54.616;39.786;2024-03-23T10:30:22;60318.31;;;-145.73;100.00
49627;BME280;35527;54.616;39.786;2024-03-23T10:33:28;60318.31;;;-145.73;100.00
49627;BME280;35527;54.616;39.786;2024-03-23T10:36:32;60318.31;;;-145.73;100.00
49627;BME280;35527;54.616;39.786;2024-03-23T10:39:40;60318.31;;;-145.73;100.00
49627;BME280;35527;54.616;39.786;2024-03-23T10:42:45;60318.31;;;-145.73;100.00
49627;BME280;35527;54.616;39.786;2024-03-23T10:45:47;60318.31;;;-145.73;100.00
49627;BME280;35527;54.616;39.786;2024-03-23T10:48:53;60318.31;;;-145.73;100.00
49627;BME280;35527;54.616;39.786;2024-03-23T10:51:57;60318.31;;;-145.73;100.00
49627;BME280;35527;54.616;39.786;2024-03-23T10:55:04;60318.31;;;-145.73;100.00
49627;BME280;35527;54.616;39.786;2024-03-23T10:58:08;60318.31;;;-145.73;100.00
49627;BME280;35527;54.616;39.786;2024-03-23T11:01:15;60318.31;;;-145.73;100.00
49627;BME280;35527;54.616;39.786;2024-03-23T11:04:29;60318.31;;;-145.73;100.00
49627;BME280;35527;54.616;39.786;2024-03-23T11:07:32;60318.31;;;-145.73;100.00
49627;BME280;35527;54.616;39.786;2024-03-23T11:10:34;60318.31;;;-145.73;100.00
49627;BME280;35527;54.616;39.786;2024-03-23T11:13:39;60318.31;;;-145.73;100.00
49627;BME280;35527;54.616;39.786;2024-03-23T11:16:42;60318.31;;;-145.73;100.00
49627;BME280;35527;54.616;39.786;2024-03-23T11:19:44;60318.31;;;-145.73;100.00
49627;BME280;35527;54.616;39.786;2024-03-23T11:22:47;60318.31;;;-145.73;100.00
49627;BME280;35527;54.616;39.786;2024-03-23T11:25:54;60318.31;;;-145.73;100.00
49627;BME280;35527;54.616;39.786;2024-03-23T11:29:10;60318.31;;;-145.73;100.00
49627;BME280;35527;54.616;39.786;2024-03-23T11:32:13;60318.31;;;-145.73;100.00
49627;BME280;35527;54.616;39.786;2024-03-23T11:38:37;60318.31;;;-145.73;100.00
49627;BME280;35527;54.616;39.786;2024-03-23T11:41:52;60318.31;;;-145.73;100.00
49627;BME280;35527;54.616;39.786;2024-03-23T11:44:55;60318.31;;;-145.73;100.00
49627;BME280;35527;54.616;39.786;2024-03-23T11:48:10;60318.31;;;-145.73;100.00
49627;BME280;35527;54.616;39.786;2024-03-23T11:51:13;60318.31;;;-145.73;100.00
49627;BME280;35527;54.616;39.786;2024-03-23T11:54:15;60318.31;;;-145.73;100.00
49627;BME280;35527;54.616;39.786;2024-03-23T11:57:18;60318.31;;;-145.73;100.00
49627;BME280;35527;54.616;39.786;2024-03-23T12:00:21;60318.31;;;-145.73;100.00
49627;BME280;35527;54.616;39.786;2024-03-23T12:03:24;60318.31;;;-145.73;100.00
49627;BME280;35527;54.616;39.786;2024-03-23T12:06:28;60318.31;;;-145.73;100.00
49627;BME280;35527;54.616;39.786;2024-03-23T12:09:30;60318.31;;;-145.73;100.00
49627;BME280;35527;54.616;39.786;2024-03-23T12:12:31;60318.31;;;-145.73;100.00
49627;BME280;35527;54.616;39.786;2024-03-23T12:15:34;60318.31;;;-145.73;100.00
49627;BME280;35527;54.616;39.786;2024-03-23T12:18:37;60318.31;;;-145.73;100.00
49627;BME280;35527;54.616;39.786;2024-03-23T12:21:40;60318.31;;;-145.73;100.00
49627;BME280;35527;54.616;39.786;2024-03-23T12:24:42;60318.31;;;-145.73;100.00
49627;BME280;35527;54.616;39.786;2024-03-23T12:27:48;60318.31;;;-145.73;100.00
49627;BME280;35527;54.616;39.786;2024-03-23T12:30:51;60318.31;;;-145.73;100.00
49627;BME280;35527;54.616;39.786;2024-03-23T12:33:54;60318.31;;;-145.73;100.00
49627;BME280;35527;54.616;39.786;2024-03-23T12:36:56;60318.31;;;-145.73;100.00
49627;BME280;35527;54.616;39.786;2024-03-23T12:39:58;60318.31;;;-145.73;100.00
49627;BME280;35527;54.616;39.786;2024-03-23T12:43:01;60318.31;;;-145.73;100.00
49627;BME280;35527;54.616;39.786;2024-03-23T12:46:03;60318.31;;;-145.73;100.00
49627;BME280;35527;54.616;39.786;2024-03-23T12:49:05;60318.31;;;-145.73;100.00
49627;BME280;35527;54.616;39.786;2024-03-23T12:52:09;60318.31;;;-145.73;100.00
49627;BME280;35527;54.616;39.786;2024-03-23T12:55:12;60318.31;;;-145.73;100.00
49627;BME280;35527;54.616;39.786;2024-03-23T12:58:13;60318.31;;;-145.73;100.00
49627;BME280;35527;54.616;39.786;2024-03-23T13:01:15;60318.31;;;-145.73;100.00
49627;BME280;35527;54.616;39.786;2024-03-23T13:04:21;60318.31;;;-145.73;100.00
49627;BME280;35527;54.616;39.786;2024-03-23T13:07:24;60318.31;;;-145.73;100.00
49627;BME280;35527;54.616;39.786;2024-03-23T13:10:28;60318.31;;;-145.73;100.00
49627;BME280;35527;54.616;39.786;2024-03-23T13:13:30;60318.31;;;-145.73;100.00
49627;BME280;35527;54.616;39.786;2024-03-23T13:16:34;60318.31;;;-145.73;100.00
49627;BME280;35527;54.616;39.786;2024-03-23T13:19:35;60318.31;;;-145.73;100.00
49627;BME280;35527;54.616;39.786;2024-03-23T13:22:40;60318.31;;;-145.73;100.00
49627;BME280;35527;54.616;39.786;2024-03-23T13:25:53;60318.31;;;-145.73;100.00
49627;BME280;35527;54.616;39.786;2024-03-23T13:28:56;60318.31;;;-145.73;100.00
49627;BME280;35527;54.616;39.786;2024-03-23T13:31:59;60318.31;;;-145.73;100.00
49627;BME280;35527;54.616;39.786;2024-03-23T13:35:01;60318.31;;;-145.73;100.00
49627;BME280;35527;54.616;39.786;2024-03-23T13:38:08;60318.31;;;-145.73;100.00
49627;BME280;35527;54.616;39.786;2024-03-23T13:41:10;60318.31;;;-145.73;100.00
49627;BME280;35527;54.616;39.786;2024-03-23T13:44:14;60318.31;;;-145.73;100.00
49627;BME280;35527;54.616;39.786;2024-03-23T13:47:18;60318.31;;;-145.73;100.00
49627;BME280;35527;54.616;39.786;2024-03-23T13:50:20;60318.31;;;-145.73;100.00
49627;BME280;35527;54.616;39.786;2024-03-23T13:53:27;60318.31;;;-145.73;100.00
49627;BME280;35527;54.616;39.786;2024-03-23T13:56:30;60318.31;;;-145.73;100.00
49627;BME280;35527;54.616;39.786;2024-03-23T13:59:33;60318.31;;;-145.73;100.00
49627;BME280;35527;54.616;39.786;2024-03-23T14:02:35;60318.31;;;-145.73;100.00
49627;BME280;35527;54.616;39.786;2024-03-23T14:05:40;60318.31;;;-145.73;100.00
49627;BME280;35527;54.616;39.786;2024-03-23T14:08:43;60318.31;;;-145.73;100.00
49627;BME280;35527;54.616;39.786;2024-03-23T14:11:45;60318.31;;;-145.73;100.00
49627;BME280;35527;54.616;39.786;2024-03-23T14:14:47;60318.31;;;-145.73;100.00
49627;BME280;35527;54.616;39.786;2024-03-23T14:17:50;60318.31;;;-145.73;100.00
49627;BME280;35527;54.616;39.786;2024-03-23T14:20:59;60318.31;;;-145.73;100.00
49627;BME280;35527;54.616;39.786;2024-03-23T14:24:05;60318.31;;;-145.73;100.00
49627;BME280;35527;54.616;39.786;2024-03-23T14:27:07;60318.31;;;-145.73;100.00
49627;BME280;35527;54.616;39.786;2024-03-23T14:30:11;60318.31;;;-145.73;100.00
49627;BME280;35527;54.616;39.786;2024-03-23T14:33:13;60318.31;;;-145.73;100.00
49627;BME280;35527;54.616;39.786;2024-03-23T14:36:16;60318.31;;;-145.73;100.00
49627;BME280;35527;54.616;39.786;2024-03-23T14:39:23;60318.31;;;-145.73;100.00
49627;BME280;35527;54.616;39.786;2024-03-23T14:42:25;60318.31;;;-145.73;100.00
49627;BME280;35527;54.616;39.786;2024-03-23T14:45:28;60318.31;;;-145.73;100.00
49627;BME280;35527;54.616;39.786;2024-03-23T14:48:30;60318.31;;;-145.73;100.00
49627;BME280;35527;54.616;39.786;2024-03-23T14:51:33;60318.31;;;-145.73;100.00
49627;BME280;35527;54.616;39.786;2024-03-23T14:54:36;60318.31;;;-145.73;100.00
49627;BME280;35527;54.616;39.786;2024-03-23T14:57:39;60318.31;;;-145.73;100.00
49627;BME280;35527;54.616;39.786;2024-03-23T15:00:41;60318.31;;;-145.73;100.00
49627;BME280;35527;54.616;39.786;2024-03-23T15:03:43;60318.31;;;-145.73;100.00
49627;BME280;35527;54.616;39.786;2024-03-23T15:06:49;60318.31;;;-145.73;100.00
49627;BME280;35527;54.616;39.786;2024-03-23T15:09:53;60318.31;;;-145.73;100.00
49627;BME280;35527;54.616;39.786;2024-03-23T15:12:56;60318.31;;;-145.73;100.00
49627;BME280;35527;54.616;39.786;2024-03-23T15:15:57;60318.31;;;-145.73;100.00
49627;BME280;35527;54.616;39.786;2024-03-23T15:19:00;60318.31;;;-145.73;100.00
49627;BME280;35527;54.616;39.786;2024-03-23T15:22:03;60318.31;;;-145.73;100.00
49627;BME280;35527;54.616;39.786;2024-03-23T15:25:07;60318.31;;;-145.73;100.00
49627;BME280;35527;54.616;39.786;2024-03-23T15:28:12;60318.31;;;-145.73;100.00
49627;BME280;35527;54.616;39.786;2024-03-23T15:31:40;60318.31;;;-145.73;100.00
49627;BME280;35527;54.616;39.786;2024-03-23T15:34:43;60318.31;;;-145.73;100.00
49627;BME280;35527;54.616;39.786;2024-03-23T15:37:47;60318.31;;;-145.73;100.00
49627;BME280;35527;54.616;39.786;2024-03-23T15:40:52;60318.31;;;-145.73;100.00
49627;BME280;35527;54.616;39.786;2024-03-23T15:43:54;60318.31;;;-145.73;100.00
49627;BME280;35527;54.616;39.786;2024-03-23T15:46:58;60318.31;;;-145.73;100.00
49627;BME280;35527;54.616;39.786;2024-03-23T15:50:02;60318.31;;;-145.73;100.00
49627;BME280;35527;54.616;39.786;2024-03-23T15:53:09;60318.31;;;-145.73;100.00
49627;BME280;35527;54.616;39.786;2024-03-23T15:56:13;60318.31;;;-145.73;100.00
49627;BME280;35527;54.616;39.786;2024-03-23T15:59:16;60318.31;;;-145.73;100.00
49627;BME280;35527;54.616;39.786;2024-03-23T16:02:19;60318.31;;;-145.73;100.00
49627;BME280;35527;54.616;39.786;2024-03-23T16:05:20;60318.31;;;-145.73;100.00
49627;BME280;35527;54.616;39.786;2024-03-23T16:08:24;60318.31;;;-145.73;100.00
49627;BME280;35527;54.616;39.786;2024-03-23T16:11:27;60318.31;;;-145.73;100.00
49627;BME280;35527;54.616;39.786;2024-03-23T16:14:28;60318.31;;;-145.73;100.00
49627;BME280;35527;54.616;39.786;2024-03-23T16:17:30;60318.31;;;-145.73;100.00
49627;BME280;35527;54.616;39.786;2024-03-23T16:20:41;60318.31;;;-145.73;100.00
49627;BME280;35527;54.616;39.786;2024-03-23T16:23:46;60318.31;;;-145.73;100.00
49627;BME280;35527;54.616;39.786;2024-03-23T16:26:52;60318.31;;;-145.73;100.00
49627;BME280;35527;54.616;39.786;2024-03-23T16:29:57;60318.31;;;-145.73;100.00
49627;BME280;35527;54.616;39.786;2024-03-23T16:33:01;60318.31;;;-145.73;100.00
49627;BME280;35527;54.616;39.786;2024-03-23T16:36:09;60318.31;;;-145.73;100.00
49627;BME280;35527;54.616;39.786;2024-03-23T16:39:15;60318.31;;;-145.73;100.00
49627;BME280;35527;54.616;39.786;2024-03-23T16:42:19;60318.31;;;-145.73;100.00
49627;BME280;35527;54.616;39.786;2024-03-23T16:45:24;60318.31;;;-145.73;100.00
49627;BME280;35527;54.616;39.786;2024-03-23T16:48:28;60318.31;;;-145.73;100.00